CUV weather

Casigua El Cubo Airport
Casigua El Cubo, Zulia, Venezuela

Public forecast

Using degrees Celsius for public forecast. Weather courtesy of forecast.io.

Closest aviation weather report (METAR) to Casigua El Cubo Airport

Report is more than 6 hours old.

Closest report is La Fria Airport, 34.9 nm (64.7 km) SSE. Retrieved 2017/09/20 18:00 UTC (2 years ago):

SVLF 201800Z 00000KT 9999 SCT040 XX/XX Q1010

Closest aviation forecast (TAF) to Casigua El Cubo Airport

Closest forecast is Camilo Daza International Airport, 49.9 nm (92.4 km) S. Retrieved 2019/10/16 06:45 UTC (1 hour ago):

TAF SKCC 160430Z 1606/1706 34008KT 9999 SCT023 SCT090 TEMPO 1610/1613 4000 BCFG SCT010 BECM G 1614/1616 17015KT TEMPO 1620/1623 DZRA SCT015 BKN070 TX33/1618Z TN24/1611Z